TimeAST,TemperatureF,Dew PointF,Humidity,Sea Level PressureIn,VisibilityMPH,Wind Direction,Wind SpeedMPH,Gust SpeedMPH,PrecipitationIn,Events,Conditions,WindDirDegrees,DateUTC
12:00 AM,29.5,20.7,70,29.49,-9999.0,West,5.8,-,N/A,,Unknown,270,2013-02-21 04:00:00
1:00 AM,28.6,19.4,69,29.51,-9999.0,West,6.9,-,N/A,,Unknown,280,2013-02-21 05:00:00
2:00 AM,28,19,59,29.52,,West,6.9,,,,,280,2013-02-21 06:00:00
2:00 AM,28.0,19.4,70,29.52,-9999.0,West,6.9,-,N/A,,Unknown,280,2013-02-21 06:00:00
3:00 AM,27.7,19.4,71,29.53,-9999.0,West,5.8,-,N/A,,Unknown,280,2013-02-21 07:00:00
4:00 AM,27.7,19.9,73,29.53,-9999.0,West,6.9,-,N/A,,Unknown,280,2013-02-21 08:00:00
5:00 AM,28,20,62,29.55,,West,8.1,,,,,280,2013-02-21 09:00:00
5:00 AM,27.5,20.1,74,29.55,-9999.0,WNW,8.1,-,N/A,,Unknown,290,2013-02-21 09:00:00
6:00 AM,27.5,20.5,75,29.57,-9999.0,West,5.8,-,N/A,,Unknown,280,2013-02-21 10:00:00
7:00 AM,27.3,20.7,76,29.57,-9999.0,West,6.9,-,N/A,,Unknown,280,2013-02-21 11:00:00
8:00 AM,27,20,67,29.59,,West,6.9,,,,,270,2013-02-21 12:00:00
8:00 AM,27.1,20.3,75,29.59,-9999.0,West,6.9,-,N/A,,Unknown,270,2013-02-21 12:00:00
9:00 AM,27.7,19.4,71,29.61,-9999.0,West,6.9,-,N/A,,Unknown,280,2013-02-21 13:00:00
10:00 AM,28.8,19.0,67,29.62,-9999.0,West,6.9,-,N/A,,Unknown,280,2013-02-21 14:00:00
11:00 AM,28,18,56,29.63,,West,10.4,,,,,260,2013-02-21 15:00:00
11:00 AM,28.2,18.5,67,29.63,-9999.0,West,10.4,-,N/A,,Unknown,260,2013-02-21 15:00:00
12:00 PM,30.2,20.1,66,29.63,-9999.0,West,10.4,-,N/A,,Unknown,270,2013-02-21 16:00:00
1:00 PM,30.4,21.7,70,29.64,-9999.0,WNW,10.4,18.4,N/A,,Unknown,300,2013-02-21 17:00:00
2:00 PM,31,24,66,29.64,,WNW,9.2,,,,,300,2013-02-21 18:00:00
2:00 PM,30.7,23.9,76,29.64,-9999.0,WNW,9.2,-,N/A,,Unknown,300,2013-02-21 18:00:00
3:00 PM,31.8,26.4,80,29.65,-9999.0,WNW,8.1,-,N/A,,Unknown,300,2013-02-21 19:00:00
4:00 PM,33.6,31.1,90,29.66,-9999.0,NNW,5.8,-,N/A,,Unknown,340,2013-02-21 20:00:00
5:00 PM,34,31,82,29.70,,North,11.5,,,,,0,2013-02-21 21:00:00
5:00 PM,34.0,30.6,87,29.70,-9999.0,North,11.5,20.7,N/A,,Unknown,360,2013-02-21 21:00:00
6:00 PM,33.4,28.9,84,29.75,-9999.0,North,11.5,18.4,N/A,,Unknown,10,2013-02-21 22:00:00
7:00 PM,33.1,28.9,85,29.81,-9999.0,North,12.7,21.9,N/A,,Unknown,360,2013-02-21 23:00:00
8:00 PM,33,28,75,29.86,,North,12.7,,,,,0,2013-02-22 00:00:00
8:00 PM,31.5,28.0,87,29.86,-9999.0,North,12.7,21.9,N/A,,Unknown,360,2013-02-22 00:00:00
9:00 PM,31.3,26.8,83,29.90,-9999.0,North,12.7,20.7,N/A,,Unknown,10,2013-02-22 01:00:00
10:00 PM,33.3,25.7,74,29.95,-9999.0,North,15.0,24.2,N/A,,Unknown,360,2013-02-22 02:00:00
11:00 PM,33,25,62,29.99,,North,18.4,,,,,10,2013-02-22 03:00:00
11:00 PM,33.4,24.8,71,29.99,-9999.0,North,18.4,31.1,N/A,,Unknown,10,2013-02-22 03:00:00